sensor_id;sensor_type;location;lat;lon;timestamp;temperature;humidity
40249;DHT22;25969;49.970;11.062;2023-05-18T04:04:22;6.10;93.20
40249;DHT22;25969;49.970;11.062;2023-05-18T04:14:22;6.40;93.60
40249;DHT22;25969;49.970;11.062;2023-05-18T04:24:24;6.10;93.60
40249;DHT22;25969;49.970;11.062;2023-05-18T04:34:27;6.20;93.40
40249;DHT22;25969;49.970;11.062;2023-05-18T04:44:28;6.20;93.30
40249;DHT22;25969;49.970;11.062;2023-05-18T04:54:32;6.40;93.40
40249;DHT22;25969;49.970;11.062;2023-05-18T05:04:33;6.60;93.20
40249;DHT22;25969;49.970;11.062;2023-05-18T05:14:34;6.80;92.90
40249;DHT22;25969;49.970;11.062;2023-05-18T05:24:35;7.00;92.40
40249;DHT22;25969;49.970;11.062;2023-05-18T05:34:36;7.30;92.20
40249;DHT22;25969;49.970;11.062;2023-05-18T05:44:37;7.40;91.70
40249;DHT22;25969;49.970;11.062;2023-05-18T05:54:40;7.60;91.50
40249;DHT22;25969;49.970;11.062;2023-05-18T06:04:41;7.90;91.00
40249;DHT22;25969;49.970;11.062;2023-05-18T06:14:43;8.20;90.90
40249;DHT22;25969;49.970;11.062;2023-05-18T06:24:45;8.90;90.70
40249;DHT22;25969;49.970;11.062;2023-05-18T06:35:04;9.40;88.80
40249;DHT22;25969;49.970;11.062;2023-05-18T06:45:06;10.10;85.70
40249;DHT22;25969;49.970;11.062;2023-05-18T06:55:27;10.50;83.20
40249;DHT22;25969;49.970;11.062;2023-05-18T07:05:28;10.90;81.80
40249;DHT22;25969;49.970;11.062;2023-05-18T07:15:31;11.60;80.40
40249;DHT22;25969;49.970;11.062;2023-05-18T07:25:32;12.00;77.60
40249;DHT22;25969;49.970;11.062;2023-05-18T07:35:33;12.10;75.90
40249;DHT22;25969;49.970;11.062;2023-05-18T07:45:34;13.10;73.80
40249;DHT22;25969;49.970;11.062;2023-05-18T07:55:34;13.70;71.30
40249;DHT22;25969;49.970;11.062;2023-05-18T08:05:35;14.30;68.60
40249;DHT22;25969;49.970;11.062;2023-05-18T08:15:37;14.80;65.80
40249;DHT22;25969;49.970;11.062;2023-05-18T08:25:38;15.30;62.90
40249;DHT22;25969;49.970;11.062;2023-05-18T08:35:39;15.40;58.00
40249;DHT22;25969;49.970;11.062;2023-05-18T08:45:40;16.20;57.20
40249;DHT22;25969;49.970;11.062;2023-05-18T08:55:45;17.10;56.30
40249;DHT22;25969;49.970;11.062;2023-05-18T09:05:46;18.20;53.70
40249;DHT22;25969;49.970;11.062;2023-05-18T09:15:48;18.20;53.30
40249;DHT22;25969;49.970;11.062;2023-05-18T09:25:50;19.50;51.70
40249;DHT22;25969;49.970;11.062;2023-05-18T09:35:51;20.40;46.80
40249;DHT22;25969;49.970;11.062;2023-05-18T09:45:52;19.30;45.10
40249;DHT22;25969;49.970;11.062;2023-05-18T09:55:53;18.70;47.10
40249;DHT22;25969;49.970;11.062;2023-05-18T10:05:53;20.20;45.40
40249;DHT22;25969;49.970;11.062;2023-05-18T10:15:55;22.60;40.90
40249;DHT22;25969;49.970;11.062;2023-05-18T10:25:56;21.10;43.40
40249;DHT22;25969;49.970;11.062;2023-05-18T10:35:56;24.00;38.90
40249;DHT22;25969;49.970;11.062;2023-05-18T10:45:58;24.50;39.00
40249;DHT22;25969;49.970;11.062;2023-05-18T10:55:59;22.80;40.10
40249;DHT22;25969;49.970;11.062;2023-05-18T11:16:08;24.80;37.40
40249;DHT22;25969;49.970;11.062;2023-05-18T11:26:14;27.00;34.70
40249;DHT22;25969;49.970;11.062;2023-05-18T11:36:18;27.80;32.00
40249;DHT22;25969;49.970;11.062;2023-05-18T11:46:22;27.30;31.30
40249;DHT22;25969;49.970;11.062;2023-05-18T11:56:23;25.80;32.40
40249;DHT22;25969;49.970;11.062;2023-05-18T12:06:24;28.80;31.10
40249;DHT22;25969;49.970;11.062;2023-05-18T12:16:25;27.60;29.60
40249;DHT22;25969;49.970;11.062;2023-05-18T12:26:26;28.10;30.00
40249;DHT22;25969;49.970;11.062;2023-05-18T12:36:27;26.60;32.20
40249;DHT22;25969;49.970;11.062;2023-05-18T12:46:28;24.20;36.70
40249;DHT22;25969;49.970;11.062;2023-05-18T13:06:50;26.00;33.00
40249;DHT22;25969;49.970;11.062;2023-05-18T13:16:50;25.00;35.80
40249;DHT22;25969;49.970;11.062;2023-05-18T13:26:54;25.40;33.90
40249;DHT22;25969;49.970;11.062;2023-05-18T13:36:54;26.60;34.00
40249;DHT22;25969;49.970;11.062;2023-05-18T13:46:56;26.10;33.40
40249;DHT22;25969;49.970;11.062;2023-05-18T13:56:57;26.00;33.90
40249;DHT22;25969;49.970;11.062;2023-05-18T14:06:57;24.40;34.20
40249;DHT22;25969;49.970;11.062;2023-05-18T14:16:58;23.10;36.70
40249;DHT22;25969;49.970;11.062;2023-05-18T14:26:58;25.70;36.50
40249;DHT22;25969;49.970;11.062;2023-05-18T14:36:59;22.70;39.40
40249;DHT22;25969;49.970;11.062;2023-05-18T14:46:59;23.80;38.00
40249;DHT22;25969;49.970;11.062;2023-05-18T14:57:00;21.10;43.30
40249;DHT22;25969;49.970;11.062;2023-05-18T15:07:01;23.70;38.90
40249;DHT22;25969;49.970;11.062;2023-05-18T15:17:02;20.10;43.90
40249;DHT22;25969;49.970;11.062;2023-05-18T15:27:02;21.00;43.50
40249;DHT22;25969;49.970;11.062;2023-05-18T15:37:04;21.40;39.90
40249;DHT22;25969;49.970;11.062;2023-05-18T15:47:05;22.50;41.00
40249;DHT22;25969;49.970;11.062;2023-05-18T15:57:05;20.60;42.30
40249;DHT22;25969;49.970;11.062;2023-05-18T16:07:07;18.20;46.60
40249;DHT22;25969;49.970;11.062;2023-05-18T16:17:07;19.00;45.80
40249;DHT22;25969;49.970;11.062;2023-05-18T16:27:08;18.60;47.90
40249;DHT22;25969;49.970;11.062;2023-05-18T16:37:09;19.10;46.90
40249;DHT22;25969;49.970;11.062;2023-05-18T16:47:09;18.50;48.00
40249;DHT22;25969;49.970;11.062;2023-05-18T16:57:10;18.50;47.70
40249;DHT22;25969;49.970;11.062;2023-05-18T17:07:12;18.30;49.10
40249;DHT22;25969;49.970;11.062;2023-05-18T17:17:13;17.60;50.80
40249;DHT22;25969;49.970;11.062;2023-05-18T17:27:13;17.00;51.50
40249;DHT22;25969;49.970;11.062;2023-05-18T17:37:14;16.20;53.40
40249;DHT22;25969;49.970;11.062;2023-05-18T17:47:14;15.80;54.30
40249;DHT22;25969;49.970;11.062;2023-05-18T17:57:16;14.80;56.60
40249;DHT22;25969;49.970;11.062;2023-05-18T18:07:17;14.30;58.20
40249;DHT22;25969;49.970;11.062;2023-05-18T18:17:18;13.70;59.40
40249;DHT22;25969;49.970;11.062;2023-05-18T18:27:18;13.40;61.00
40249;DHT22;25969;49.970;11.062;2023-05-18T18:37:19;13.10;62.80
40249;DHT22;25969;49.970;11.062;2023-05-18T18:47:21;12.90;63.70
40249;DHT22;25969;49.970;11.062;2023-05-18T18:57:21;12.60;63.80
40249;DHT22;25969;49.970;11.062;2023-05-18T19:07:22;12.50;65.30
40249;DHT22;25969;49.970;11.062;2023-05-18T19:17:23;12.50;67.00
40249;DHT22;25969;49.970;11.062;2023-05-18T19:27:23;12.40;64.50
40249;DHT22;25969;49.970;11.062;2023-05-18T19:37:24;12.20;64.60
40249;DHT22;25969;49.970;11.062;2023-05-18T19:47:25;11.90;65.70
40249;DHT22;25969;49.970;11.062;2023-05-18T19:57:26;11.30;68.00
40249;DHT22;25969;49.970;11.062;2023-05-18T20:07:27;10.90;69.90
40249;DHT22;25969;49.970;11.062;2023-05-18T20:17:27;10.80;70.00
40249;DHT22;25969;49.970;11.062;2023-05-18T20:27:28;10.60;70.70
40249;DHT22;25969;49.970;11.062;2023-05-18T20:37:29;10.30;73.40
40249;DHT22;25969;49.970;11.062;2023-05-18T20:47:30;10.00;73.30
40249;DHT22;25969;49.970;11.062;2023-05-18T20:57:31;9.80;76.20
40249;DHT22;25969;49.970;11.062;2023-05-18T21:07:32;9.50;77.20
40249;DHT22;25969;49.970;11.062;2023-05-18T21:17:33;9.70;76.70
40249;DHT22;25969;49.970;11.062;2023-05-18T21:27:34;9.70;77.20
40249;DHT22;25969;49.970;11.062;2023-05-18T21:37:36;9.60;76.80
40249;DHT22;25969;49.970;11.062;2023-05-18T21:47:37;9.80;76.40
40249;DHT22;25969;49.970;11.062;2023-05-18T21:57:37;9.80;77.10
